Time;durP1;ratioP1;P1;durP2;ratioP2;P2;SDS_P1;SDS_P2;PMS_P1;PMS_P2;Temp;Humidity;BMP_temperature;BMP_pressure;BME280_temperature;BME280_humidity;BME280_pressure;Samples;Min_cycle;Max_cycle;Signal;HPM_P1;HPM_P2
2023/03/25 00:02:26;;;;;;;2.87;1.07;;;;;;;11.89;63.07;99103.22;6146431;23;21224;-81
2023/03/25 00:04:52;;;;;;;3.28;1.42;;;;;;;11.90;63.15;99091.72;6144031;23;20519;-79
2023/03/25 00:07:19;;;;;;;1.50;1.13;;;;;;;11.93;62.74;99092.31;6145960;23;20263;-79
2023/03/25 00:09:45;;;;;;;4.00;1.70;;;;;;;11.97;62.32;99081.59;6146314;23;20582;-79
2023/03/25 00:12:11;;;;;;;4.43;1.10;;;;;;;11.96;62.41;99075.47;6147104;23;20195;-78
2023/03/25 00:14:38;;;;;;;1.67;1.03;;;;;;;11.94;62.28;99067.69;6147913;23;20156;-78
2023/03/25 00:17:07;;;;;;;4.07;1.45;;;;;;;11.94;62.24;99057.16;6148997;23;20166;-78
2023/03/25 00:19:34;;;;;;;1.92;1.10;;;;;;;11.93;61.95;99066.00;6146695;23;20197;-78
2023/03/25 00:22:00;;;;;;;3.85;1.77;;;;;;;11.96;61.54;99059.66;6145179;23;20238;-78
2023/03/25 00:24:26;;;;;;;2.00;1.20;;;;;;;11.95;61.42;99052.72;6149426;23;20645;-79
2023/03/25 00:26:53;;;;;;;2.27;1.93;;;;;;;11.95;61.23;99042.22;6146720;23;20936;-78
2023/03/25 00:29:18;;;;;;;5.68;1.38;;;;;;;11.98;61.29;99052.50;6146845;23;20175;-78
2023/03/25 00:31:44;;;;;;;4.27;1.43;;;;;;;12.00;61.21;99052.38;6147251;23;20166;-78
2023/03/25 00:34:13;;;;;;;3.80;1.60;;;;;;;12.01;61.30;99059.31;6120277;23;20151;-78
2023/03/25 00:36:40;;;;;;;3.88;1.55;;;;;;;12.00;61.31;99076.91;6147904;23;20166;-78
2023/03/25 00:39:07;;;;;;;1.08;0.90;;;;;;;12.02;61.51;99095.22;6147360;23;20181;-78
2023/03/25 00:41:34;;;;;;;3.15;1.35;;;;;;;11.99;61.80;99095.44;6145774;23;20187;-78
2023/03/25 00:44:00;;;;;;;2.67;1.02;;;;;;;11.92;62.65;99089.81;6119987;23;20163;-78
2023/03/25 00:46:32;;;;;;;3.75;1.65;;;;;;;11.89;62.87;99103.22;6144009;23;20254;-77
2023/03/25 00:48:59;;;;;;;6.10;1.95;;;;;;;11.77;64.85;99107.59;6142848;23;20195;-76
2023/03/25 00:51:26;;;;;;;1.40;1.20;;;;;;;11.58;65.44;99123.09;6142185;23;20234;-77
2023/03/25 00:53:54;;;;;;;2.40;1.33;;;;;;;11.37;66.16;99088.72;6142157;23;20499;-77
2023/03/25 00:56:20;;;;;;;2.45;1.10;;;;;;;11.21;66.71;99070.66;6143940;23;20190;-78
2023/03/25 00:58:46;;;;;;;2.92;1.15;;;;;;;11.12;67.09;99087.94;6145978;23;20502;-78
2023/03/25 01:01:15;;;;;;;1.53;0.90;;;;;;;11.03;67.46;99107.84;6144693;23;20163;-78
2023/03/25 01:03:44;;;;;;;3.45;1.20;;;;;;;10.92;68.03;99094.66;6146428;23;20159;-79
2023/03/25 01:06:14;;;;;;;3.40;0.98;;;;;;;10.80;68.74;99100.81;6146471;23;20184;-78
2023/03/25 01:08:41;;;;;;;1.42;0.90;;;;;;;10.72;68.70;99088.25;6145688;23;20259;-78
2023/03/25 01:11:17;;;;;;;1.23;0.85;;;;;;;10.65;69.17;99081.75;6119412;23;20165;-78
2023/03/25 01:13:42;;;;;;;1.20;0.80;;;;;;;10.56;69.05;99072.75;6145047;23;20641;-78
2023/03/25 01:16:08;;;;;;;1.30;0.80;;;;;;;10.54;69.50;99079.06;6145220;23;20151;-78
2023/03/25 01:18:36;;;;;;;2.50;1.00;;;;;;;10.49;69.62;99086.44;6145422;23;20187;-78
2023/03/25 01:21:06;;;;;;;1.73;1.10;;;;;;;10.49;69.65;99082.00;6144720;23;20417;-78
2023/03/25 01:23:32;;;;;;;2.58;1.42;;;;;;;10.48;69.50;99090.84;6145656;23;20156;-79
2023/03/25 01:25:58;;;;;;;4.10;1.20;;;;;;;10.50;69.49;99083.69;6145226;23;20183;-78
2023/03/25 01:28:23;;;;;;;4.40;1.40;;;;;;;10.53;69.51;99085.25;6143717;23;20171;-79
2023/03/25 01:30:49;;;;;;;1.33;0.90;;;;;;;10.56;69.69;99078.00;6144263;23;20222;-78
2023/03/25 01:33:14;;;;;;;2.67;1.10;;;;;;;10.54;69.79;99061.53;6142554;23;20162;-78
2023/03/25 01:35:41;;;;;;;1.10;1.00;;;;;;;10.52;70.03;99066.03;6116392;23;20182;-78
2023/03/25 01:38:06;;;;;;;5.40;1.90;;;;;;;10.52;70.04;99063.41;6143345;23;20410;-78
2023/03/25 01:40:32;;;;;;;1.17;1.00;;;;;;;10.54;69.91;99068.56;6117263;23;20186;-78
2023/03/25 01:42:57;;;;;;;2.10;1.20;;;;;;;10.59;69.57;99064.66;6143483;23;20155;-79
2023/03/25 01:45:29;;;;;;;1.93;1.30;;;;;;;10.65;69.13;99063.38;6143896;23;20194;-79
2023/03/25 01:48:06;;;;;;;4.25;1.17;;;;;;;10.74;68.52;99060.06;6119627;23;20203;-78
2023/03/25 01:50:36;;;;;;;3.88;1.90;;;;;;;10.80;67.94;99075.41;6146137;23;20155;-79
2023/03/25 01:53:03;;;;;;;4.85;1.98;;;;;;;10.88;67.53;99095.81;6119217;23;20587;-79
2023/03/25 01:55:33;;;;;;;3.35;1.35;;;;;;;10.91;67.42;99110.53;6120127;23;20234;-78
2023/03/25 01:58:03;;;;;;;3.28;1.25;;;;;;;10.91;67.70;99129.78;6121689;23;20602;-78
2023/03/25 02:00:29;;;;;;;4.65;1.42;;;;;;;10.91;68.09;99115.78;6146142;23;20158;-78
2023/03/25 02:02:58;;;;;;;3.08;1.30;;;;;;;10.87;68.37;99115.19;6145786;23;20234;-78
2023/03/25 02:05:28;;;;;;;3.97;1.40;;;;;;;10.82;68.85;99099.75;6144683;23;20401;-78
2023/03/25 02:07:56;;;;;;;2.90;1.55;;;;;;;10.74;68.96;99094.22;6146391;23;20181;-78
2023/03/25 02:10:22;;;;;;;5.22;0.93;;;;;;;10.63;68.92;99094.16;6145083;23;20185;-78
2023/03/25 02:12:48;;;;;;;3.13;2.38;;;;;;;10.55;69.18;99081.56;6144704;23;20175;-78
2023/03/25 02:15:16;;;;;;;1.00;0.83;;;;;;;10.50;68.98;99078.44;6143875;23;20155;-78
2023/03/25 02:17:45;;;;;;;1.52;1.00;;;;;;;10.43;69.14;99084.25;6145394;23;20195;-78
2023/03/25 02:20:46;;;;;;;5.45;1.75;;;;;;;10.39;69.53;99083.63;6143805;23;20171;-78
2023/03/25 02:23:27;;;;;;;2.63;1.38;;;;;;;10.32;69.88;99090.28;6145237;23;20214;-78
2023/03/25 02:26:08;;;;;;;2.15;1.70;;;;;;;10.28;69.81;99087.00;6144898;23;20266;-78
2023/03/25 02:28:55;;;;;;;3.38;1.33;;;;;;;10.27;69.93;99101.09;6145640;23;20179;-78
2023/03/25 02:31:31;;;;;;;2.42;1.45;;;;;;;10.28;69.81;99115.88;6119623;23;20159;-78
2023/03/25 02:34:22;;;;;;;3.47;1.77;;;;;;;10.28;69.75;99125.53;6121994;23;20217;-78
2023/03/25 02:37:02;;;;;;;1.70;1.23;;;;;;;10.27;69.79;99118.59;6144607;23;20155;-79
2023/03/25 02:39:39;;;;;;;3.75;1.02;;;;;;;10.29;69.87;99129.84;6142512;23;20183;-78
2023/03/25 02:42:10;;;;;;;1.90;1.00;;;;;;;10.28;69.62;99136.03;6119213;23;20159;-79
2023/03/25 02:44:43;;;;;;;2.20;1.38;;;;;;;10.28;69.49;99136.88;6118725;23;20511;-78
2023/03/25 02:47:15;;;;;;;2.08;1.25;;;;;;;10.27;69.08;99155.34;6146609;23;20155;-79
2023/03/25 02:49:46;;;;;;;3.03;1.15;;;;;;;10.24;68.44;99152.94;6110152;23;20214;-78
2023/03/25 02:52:23;;;;;;;2.60;1.05;;;;;;;10.16;67.59;99137.72;6177299;23;20529;-79
2023/03/25 02:54:50;;;;;;;0.90;0.70;;;;;;;10.10;67.37;99133.75;6148873;23;20159;-79
2023/03/25 02:57:21;;;;;;;0.90;0.80;;;;;;;10.01;66.55;99123.84;6150481;23;20167;-79
2023/03/25 02:59:49;;;;;;;1.42;0.80;;;;;;;9.95;66.46;99140.84;6150507;23;20163;-79
2023/03/25 03:02:16;;;;;;;2.28;1.15;;;;;;;9.91;66.55;99143.78;6178522;23;20197;-78
2023/03/25 03:04:50;;;;;;;2.35;0.70;;;;;;;9.86;66.46;99148.53;6146620;23;20182;-79
2023/03/25 03:07:28;;;;;;;3.78;0.80;;;;;;;9.79;66.56;99145.47;6150987;23;20158;-78
2023/03/25 03:10:18;;;;;;;1.67;0.80;;;;;;;9.76;66.03;99148.31;6151625;23;20182;-79
2023/03/25 03:13:07;;;;;;;0.73;0.60;;;;;;;9.69;66.22;99150.53;6178814;23;20173;-79
2023/03/25 03:16:12;;;;;;;0.75;0.75;;;;;;;9.61;66.30;99150.16;6177427;23;20209;-79
2023/03/25 03:18:41;;;;;;;1.10;0.60;;;;;;;9.54;65.95;99151.53;6177626;23;20229;-79
2023/03/25 03:21:33;;;;;;;1.10;0.70;;;;;;;9.50;66.12;99158.78;6151993;23;20160;-78
2023/03/25 03:24:11;;;;;;;1.75;0.70;;;;;;;9.48;66.31;99146.72;6178240;23;20809;-79
2023/03/25 03:26:43;;;;;;;0.80;0.70;;;;;;;9.46;66.45;99144.19;6178655;23;20159;-79
2023/03/25 03:29:16;;;;;;;2.88;0.73;;;;;;;9.42;66.23;99144.47;6177685;23;20236;-79
2023/03/25 03:32:07;;;;;;;1.45;0.80;;;;;;;9.38;66.28;99156.13;6178429;23;20165;-79
2023/03/25 03:34:43;;;;;;;1.80;0.80;;;;;;;9.36;66.07;99161.44;6142474;23;20640;-79
2023/03/25 03:37:13;;;;;;;1.40;0.60;;;;;;;9.33;66.48;99160.81;6151849;23;20176;-79
2023/03/25 03:39:40;;;;;;;0.80;0.63;;;;;;;9.29;66.46;99163.66;6177538;23;20160;-79
2023/03/25 03:42:24;;;;;;;0.85;0.68;;;;;;;9.24;66.13;99178.81;6177004;23;20537;-78
2023/03/25 03:44:55;;;;;;;1.33;0.70;;;;;;;9.23;66.13;99173.66;6175289;23;20183;-78
2023/03/25 03:47:25;;;;;;;1.13;0.60;;;;;;;9.19;66.33;99165.19;6173994;23;20198;-78
2023/03/25 03:49:58;;;;;;;1.58;0.70;;;;;;;9.18;66.38;99160.91;6176759;23;20197;-79
2023/03/25 03:52:36;;;;;;;1.85;1.00;;;;;;;9.20;66.17;99163.41;6176907;23;20169;-78
2023/03/25 03:55:21;;;;;;;1.73;0.70;;;;;;;9.19;66.14;99159.09;6173742;23;20640;-78
2023/03/25 03:58:04;;;;;;;0.65;0.65;;;;;;;9.24;66.29;99157.03;6174202;23;20178;-78
2023/03/25 04:00:41;;;;;;;1.83;1.25;;;;;;;9.24;66.01;99157.88;6173384;23;20253;-78
2023/03/25 04:03:15;;;;;;;0.90;0.73;;;;;;;9.24;66.28;99149.16;6174376;23;20163;-79
2023/03/25 04:05:46;;;;;;;1.35;0.73;;;;;;;9.22;66.25;99162.34;6174557;23;20265;-79
2023/03/25 04:08:22;;;;;;;5.18;0.80;;;;;;;9.22;66.20;99167.59;6175730;23;20265;-79
2023/03/25 04:10:57;;;;;;;1.17;0.80;;;;;;;9.23;66.15;99144.84;6174833;23;20169;-80
2023/03/25 04:13:27;;;;;;;1.75;0.93;;;;;;;9.22;66.16;99148.41;6176268;23;20806;-79
2023/03/25 04:15:53;;;;;;;2.78;0.80;;;;;;;9.20;65.75;99153.75;6177124;23;20197;-80
2023/03/25 04:18:22;;;;;;;0.83;0.67;;;;;;;9.20;65.87;99176.50;6175489;23;20175;-79
2023/03/25 04:20:48;;;;;;;0.90;0.60;;;;;;;9.19;65.87;99172.22;6175406;23;20393;-79
2023/03/25 04:23:16;;;;;;;1.83;0.70;;;;;;;9.18;65.70;99176.63;6149762;23;20229;-79
2023/03/25 04:25:46;;;;;;;1.65;0.90;;;;;;;9.19;65.44;99186.16;6176605;23;20268;-79
2023/03/25 04:28:12;;;;;;;1.00;0.65;;;;;;;9.21;65.59;99175.56;6177215;23;20165;-80
2023/03/25 04:30:39;;;;;;;2.35;0.98;;;;;;;9.21;65.28;99173.78;6148955;23;20159;-79
2023/03/25 04:33:05;;;;;;;0.80;0.70;;;;;;;9.22;65.33;99162.34;6175098;23;20158;-80
2023/03/25 04:35:31;;;;;;;0.93;0.65;;;;;;;9.20;65.52;99177.34;6175473;23;20195;-79
2023/03/25 04:37:58;;;;;;;1.38;0.70;;;;;;;9.20;65.45;99179.13;6174561;23;20179;-79
2023/03/25 04:40:24;;;;;;;1.08;0.70;;;;;;;9.20;65.49;99172.09;6174533;23;20194;-79
2023/03/25 04:42:52;;;;;;;1.30;0.90;;;;;;;9.21;65.57;99170.34;6176132;23;20253;-78
2023/03/25 04:45:18;;;;;;;4.00;0.85;;;;;;;9.23;65.50;99184.16;6175291;23;20487;-79
2023/03/25 04:47:46;;;;;;;1.58;0.80;;;;;;;9.24;65.73;99185.84;6176269;23;20922;-79
2023/03/25 04:50:15;;;;;;;3.67;1.23;;;;;;;9.26;66.01;99189.19;6174641;23;20155;-79
2023/03/25 04:52:40;;;;;;;0.95;0.60;;;;;;;9.24;66.42;99198.97;6172779;23;20166;-78
2023/03/25 04:55:06;;;;;;;2.20;0.80;;;;;;;9.20;67.02;99193.06;6172549;23;20155;-78
2023/03/25 04:57:31;;;;;;;0.70;0.60;;;;;;;9.13;67.65;99194.41;6175405;23;20517;-79
2023/03/25 04:59:57;;;;;;;0.93;0.63;;;;;;;9.09;67.98;99195.53;6175705;23;20162;-79
2023/03/25 05:02:22;;;;;;;2.10;0.70;;;;;;;9.05;68.22;99191.44;6148244;23;20862;-79
2023/03/25 05:04:48;;;;;;;0.83;0.70;;;;;;;9.04;68.37;99197.59;6174385;23;20435;-79
2023/03/25 05:07:15;;;;;;;2.58;0.80;;;;;;;9.01;68.79;99177.69;6175147;23;20158;-79
2023/03/25 05:09:40;;;;;;;3.20;0.70;;;;;;;8.98;68.64;99185.72;6175379;23;20160;-79
2023/03/25 05:12:10;;;;;;;0.73;0.70;;;;;;;8.95;68.91;99172.84;6174508;23;20209;-78
2023/03/25 05:14:35;;;;;;;0.93;0.73;;;;;;;8.95;68.70;99172.00;6174256;23;20155;-79
2023/03/25 05:17:00;;;;;;;1.53;0.70;;;;;;;8.96;68.85;99190.22;6174545;23;20293;-79
2023/03/25 05:19:27;;;;;;;0.70;0.60;;;;;;;8.97;68.77;99186.69;6174429;23;20982;-79
2023/03/25 05:21:55;;;;;;;1.45;1.02;;;;;;;8.97;68.82;99188.47;6174864;23;20166;-79
2023/03/25 05:24:20;;;;;;;1.52;0.63;;;;;;;8.99;68.86;99191.81;6176472;23;20166;-79
2023/03/25 05:26:46;;;;;;;0.90;0.60;;;;;;;8.98;69.20;99201.44;6177770;23;20195;-78
2023/03/25 05:29:14;;;;;;;0.90;0.63;;;;;;;8.98;69.28;99206.69;6173994;23;20182;-79
2023/03/25 05:31:40;;;;;;;1.00;0.50;;;;;;;8.98;69.45;99211.09;6174751;23;20169;-80
2023/03/25 05:34:07;;;;;;;0.73;0.70;;;;;;;8.96;69.41;99207.72;6174551;23;20682;-78
2023/03/25 05:36:33;;;;;;;1.42;0.70;;;;;;;8.96;69.51;99203.31;6175602;23;20178;-79
2023/03/25 05:38:59;;;;;;;1.00;0.68;;;;;;;8.97;69.66;99202.41;6175389;23;20201;-79
2023/03/25 05:41:37;;;;;;;1.83;0.70;;;;;;;8.97;69.96;99209.44;6150149;23;20167;-79
2023/03/25 05:44:07;;;;;;;1.23;0.65;;;;;;;8.96;70.08;99202.50;6174287;23;20872;-79
2023/03/25 05:46:33;;;;;;;2.35;0.65;;;;;;;8.95;70.21;99196.41;6177288;23;20182;-79
2023/03/25 05:49:01;;;;;;;1.13;0.60;;;;;;;8.95;70.56;99192.97;6175349;23;20187;-79
2023/03/25 05:51:32;;;;;;;0.60;0.50;;;;;;;8.95;70.73;99198.19;6177006;23;20425;-79
2023/03/25 05:53:58;;;;;;;0.90;0.80;;;;;;;8.94;70.97;99196.50;6173562;23;20162;-80
2023/03/25 05:56:24;;;;;;;1.38;0.60;;;;;;;8.94;71.14;99197.38;6149690;23;20526;-79
2023/03/25 05:58:51;;;;;;;1.20;0.75;;;;;;;8.94;71.20;99202.59;6176357;23;20193;-80
2023/03/25 06:01:18;;;;;;;1.00;0.63;;;;;;;8.96;71.24;99187.59;6176332;23;20165;-79
2023/03/25 06:03:44;;;;;;;1.60;0.90;;;;;;;9.00;71.15;99196.13;6173965;23;20602;-79
2023/03/25 06:06:13;;;;;;;2.50;1.10;;;;;;;9.02;71.30;99183.78;6176018;23;20205;-80
2023/03/25 06:08:40;;;;;;;0.70;0.70;;;;;;;9.03;71.27;99191.53;6178423;23;20266;-79
2023/03/25 06:11:08;;;;;;;1.60;1.00;;;;;;;9.04;71.38;99181.88;6176885;23;20170;-78
2023/03/25 06:13:36;;;;;;;1.23;1.13;;;;;;;9.04;71.32;99177.47;6175706;23;20158;-79
2023/03/25 06:16:04;;;;;;;0.80;0.68;;;;;;;9.07;71.26;99177.31;6155955;23;20537;-79
2023/03/25 06:18:31;;;;;;;0.73;0.73;;;;;;;9.15;71.23;99191.66;6172128;23;20740;-79
2023/03/25 06:20:56;;;;;;;1.15;0.75;;;;;;;9.19;71.02;99191.38;6166631;23;20170;-80
2023/03/25 06:23:25;;;;;;;4.00;1.73;;;;;;;9.23;70.95;99184.16;6167966;23;20154;-79
2023/03/25 06:25:51;;;;;;;1.98;0.98;;;;;;;9.28;70.96;99176.84;6168117;23;21036;-80
2023/03/25 06:28:20;;;;;;;2.03;0.93;;;;;;;9.36;70.47;99185.03;6167968;23;20228;-80
2023/03/25 06:30:47;;;;;;;2.67;1.13;;;;;;;9.45;70.21;99178.34;6167608;23;20398;-80
2023/03/25 06:33:14;;;;;;;4.53;1.02;;;;;;;9.53;69.86;99176.91;6168734;23;20163;-79
2023/03/25 06:35:41;;;;;;;1.50;0.70;;;;;;;9.61;69.23;99168.53;6173025;23;20151;-79
2023/03/25 06:38:12;;;;;;;1.45;1.00;;;;;;;9.70;69.30;99156.59;6171909;23;20245;-80
2023/03/25 06:41:01;;;;;;;1.00;0.80;;;;;;;9.79;68.96;99163.84;6146677;23;20167;-79
2023/03/25 06:43:27;;;;;;;1.40;0.80;;;;;;;9.85;68.49;99178.31;6146522;23;20985;-79
2023/03/25 06:46:11;;;;;;;1.33;0.90;;;;;;;9.90;68.28;99168.34;6173043;23;20537;-79
2023/03/25 06:49:05;;;;;;;1.92;1.13;;;;;;;9.95;68.11;99174.97;6171571;23;20232;-80
2023/03/25 06:51:31;;;;;;;1.87;0.80;;;;;;;9.95;67.69;99171.50;6168719;23;20886;-79
2023/03/25 06:53:56;;;;;;;2.50;0.90;;;;;;;10.02;67.44;99178.03;6170919;23;20167;-79
2023/03/25 06:56:21;;;;;;;2.10;0.90;;;;;;;10.10;67.43;99167.84;6163244;23;20202;-80
2023/03/25 06:58:47;;;;;;;2.07;0.90;;;;;;;10.17;67.01;99163.84;6176560;23;20269;-79
2023/03/25 07:01:12;;;;;;;2.80;0.90;;;;;;;10.23;66.92;99149.44;6177513;23;20155;-80
2023/03/25 07:03:38;;;;;;;2.00;1.07;;;;;;;10.29;66.30;99156.09;6177796;23;20163;-79
2023/03/25 07:06:05;;;;;;;1.30;1.10;;;;;;;10.32;66.19;99148.84;6177889;23;20573;-80
2023/03/25 07:08:31;;;;;;;2.38;1.00;;;;;;;10.34;65.62;99133.84;6176909;23;20294;-79
2023/03/25 07:11:01;;;;;;;3.28;0.80;;;;;;;10.36;65.56;99141.59;6177655;23;20206;-79
2023/03/25 07:13:26;;;;;;;1.65;0.93;;;;;;;10.37;64.82;99151.16;6178305;23;20213;-79
2023/03/25 07:15:54;;;;;;;5.70;1.20;;;;;;;10.36;65.06;99142.44;6178109;23;20233;-80
2023/03/25 07:18:19;;;;;;;2.45;1.27;;;;;;;10.37;64.72;99141.50;6177641;23;20178;-79
2023/03/25 07:20:45;;;;;;;1.30;0.77;;;;;;;10.39;64.52;99144.84;6178548;23;20194;-80
2023/03/25 07:23:10;;;;;;;1.43;0.77;;;;;;;10.45;64.35;99148.84;6178794;23;20168;-80
2023/03/25 07:25:36;;;;;;;1.10;1.00;;;;;;;10.47;64.07;99156.59;6179641;23;20187;-80
2023/03/25 07:28:01;;;;;;;1.83;1.10;;;;;;;10.50;64.08;99156.38;6180134;23;20229;-80
2023/03/25 07:30:28;;;;;;;1.70;1.05;;;;;;;10.52;64.01;99154.50;6152707;23;20217;-80
2023/03/25 07:32:55;;;;;;;3.60;1.30;;;;;;;10.52;64.21;99151.88;6179764;23;20162;-80
2023/03/25 07:35:20;;;;;;;2.20;1.10;;;;;;;10.51;64.35;99151.03;6179118;23;20174;-80
2023/03/25 07:37:46;;;;;;;3.23;1.30;;;;;;;10.50;64.31;99172.13;6180136;23;20633;-80
2023/03/25 07:40:11;;;;;;;2.43;1.00;;;;;;;10.50;64.62;99172.13;6179434;23;20158;-80
2023/03/25 07:42:37;;;;;;;1.93;1.00;;;;;;;10.47;64.92;99162.69;6179354;23;20178;-80
2023/03/25 07:45:15;;;;;;;4.35;1.05;;;;;;;10.46;65.25;99165.44;6152863;23;20191;-80
2023/03/25 07:47:48;;;;;;;3.70;1.23;;;;;;;10.43;65.58;99177.00;6152107;23;20190;-80
2023/03/25 07:50:15;;;;;;;3.17;1.15;;;;;;;10.38;66.06;99171.22;6177640;23;20647;-80
2023/03/25 07:52:40;;;;;;;4.25;1.20;;;;;;;10.38;66.45;99168.59;6178554;23;20155;-80
2023/03/25 07:55:06;;;;;;;2.70;1.27;;;;;;;10.38;66.65;99169.41;6175576;23;20213;-80
2023/03/25 07:57:32;;;;;;;6.40;1.80;;;;;;;10.44;66.92;99162.91;6177352;23;20174;-80
2023/03/25 07:59:57;;;;;;;1.93;1.20;;;;;;;10.49;67.02;99166.03;6176213;23;20935;-79
2023/03/25 08:02:22;;;;;;;2.87;0.97;;;;;;;10.55;67.17;99177.91;6172001;23;20668;-79
2023/03/25 08:04:48;;;;;;;1.80;1.33;;;;;;;10.55;67.30;99170.03;6175276;23;20685;-80
2023/03/25 08:07:14;;;;;;;5.23;1.80;;;;;;;10.56;67.32;99182.22;6173672;23;20234;-79
2023/03/25 08:09:40;;;;;;;8.10;1.23;;;;;;;10.53;67.69;99175.41;6172588;23;20147;-79
2023/03/25 08:12:07;;;;;;;3.93;1.23;;;;;;;10.54;67.80;99176.22;6173205;23;20560;-80
2023/03/25 08:14:32;;;;;;;5.50;1.20;;;;;;;10.52;67.66;99181.56;6173808;23;20389;-80
2023/03/25 08:16:57;;;;;;;4.60;1.43;;;;;;;10.54;67.63;99179.69;6173791;23;20162;-80
2023/03/25 08:19:23;;;;;;;2.30;1.17;;;;;;;10.60;67.56;99176.63;6175355;23;20556;-79
2023/03/25 08:21:48;;;;;;;5.10;2.33;;;;;;;10.69;67.46;99174.28;6175264;23;20376;-79
2023/03/25 08:24:14;;;;;;;6.33;1.60;;;;;;;10.82;66.86;99178.56;6147977;23;20185;-79
2023/03/25 08:26:39;;;;;;;2.10;1.10;;;;;;;11.07;66.22;99182.06;6174518;23;20218;-79
2023/03/25 08:29:06;;;;;;;2.37;1.10;;;;;;;11.26;64.88;99171.91;6173951;23;20186;-79
2023/03/25 08:31:32;;;;;;;3.88;1.23;;;;;;;11.39;64.02;99168.34;6173746;23;20222;-79
2023/03/25 08:33:59;;;;;;;1.20;0.90;;;;;;;11.48;63.32;99186.09;6173279;23;20163;-79
2023/03/25 08:36:24;;;;;;;3.33;1.20;;;;;;;11.48;63.35;99171.16;6174038;23;20262;-79
2023/03/25 08:38:50;;;;;;;1.97;1.23;;;;;;;11.46;62.87;99180.09;6173442;23;20210;-79
2023/03/25 08:41:17;;;;;;;2.03;1.00;;;;;;;11.40;62.88;99177.94;6177199;23;20190;-79
2023/03/25 08:43:44;;;;;;;2.22;1.20;;;;;;;11.38;62.99;99185.91;6175754;23;20190;-79
2023/03/25 08:46:12;;;;;;;1.77;0.90;;;;;;;11.35;63.00;99186.16;6176569;23;20197;-78
2023/03/25 08:48:38;;;;;;;1.52;0.90;;;;;;;11.37;62.90;99172.88;6174910;23;20194;-79
2023/03/25 08:51:05;;;;;;;2.60;1.23;;;;;;;11.33;63.20;99180.16;6175392;23;20216;-79
2023/03/25 08:53:30;;;;;;;1.05;0.88;;;;;;;11.36;63.13;99195.72;6174839;23;20504;-79
2023/03/25 08:55:57;;;;;;;2.57;1.10;;;;;;;11.43;63.39;99185.59;6175630;23;20671;-79
2023/03/25 08:58:24;;;;;;;1.15;0.80;;;;;;;11.42;63.13;99186.53;6176778;23;20245;-79
2023/03/25 09:00:53;;;;;;;2.30;1.20;;;;;;;11.38;63.46;99183.28;6176394;23;20170;-79
2023/03/25 09:03:20;;;;;;;2.95;0.82;;;;;;;11.36;63.28;99179.09;6174120;23;20213;-79
2023/03/25 09:05:46;;;;;;;0.90;0.60;;;;;;;11.33;63.35;99181.94;6176738;23;20277;-79
2023/03/25 09:08:12;;;;;;;0.95;0.60;;;;;;;11.25;63.16;99185.97;6176684;23;20200;-78
2023/03/25 09:10:38;;;;;;;2.00;0.70;;;;;;;11.19;63.13;99181.16;6175933;23;20483;-79
2023/03/25 09:13:03;;;;;;;2.77;0.63;;;;;;;11.15;63.50;99179.72;6176664;23;20158;-79
2023/03/25 09:15:29;;;;;;;0.80;0.60;;;;;;;11.12;63.93;99179.09;6176134;23;20436;-78
2023/03/25 09:17:55;;;;;;;1.53;1.00;;;;;;;11.09;63.64;99182.78;6176375;23;20189;-79
2023/03/25 09:20:20;;;;;;;1.17;0.80;;;;;;;11.07;63.27;99192.56;6176442;23;20392;-79
2023/03/25 09:22:46;;;;;;;1.00;0.70;;;;;;;11.12;63.22;99190.44;6176624;23;20158;-79
2023/03/25 09:25:12;;;;;;;5.10;0.80;;;;;;;11.17;63.09;99193.59;6176997;23;20170;-79
2023/03/25 09:27:39;;;;;;;1.60;0.80;;;;;;;11.17;62.90;99188.31;6176157;23;20174;-79
2023/03/25 09:30:06;;;;;;;1.17;0.73;;;;;;;11.16;63.09;99185.81;6149960;23;20241;-79
2023/03/25 09:32:31;;;;;;;2.95;0.80;;;;;;;11.16;62.94;99202.44;6177770;23;20158;-75
2023/03/25 09:34:57;;;;;;;1.87;0.60;;;;;;;11.20;62.84;99193.34;6177326;23;20173;-76
2023/03/25 09:37:22;;;;;;;1.33;0.93;;;;;;;11.25;62.99;99208.81;6175819;23;20154;-79
2023/03/25 09:39:48;;;;;;;1.00;0.80;;;;;;;11.29;62.73;99199.75;6148832;23;20593;-79
2023/03/25 09:42:29;;;;;;;4.30;0.80;;;;;;;11.30;62.19;99196.16;6175397;23;20158;-79
2023/03/25 09:45:33;;;;;;;1.00;0.80;;;;;;;11.30;62.07;99199.63;6173986;23;20209;-79
2023/03/25 09:48:04;;;;;;;0.70;0.70;;;;;;;11.37;62.05;99200.03;6148480;23;20562;-79
2023/03/25 09:50:34;;;;;;;2.70;0.70;;;;;;;11.62;61.55;99203.47;6175616;23;20163;-79
2023/03/25 09:53:29;;;;;;;1.52;0.70;;;;;;;12.02;60.61;99201.34;6174847;23;20265;-79
2023/03/25 09:55:55;;;;;;;0.80;0.70;;;;;;;12.54;59.59;99212.28;6174137;23;20154;-80
2023/03/25 09:58:20;;;;;;;1.00;0.67;;;;;;;13.02;58.28;99210.22;6175682;23;20171;-79
2023/03/25 10:00:56;;;;;;;1.13;0.90;;;;;;;13.42;57.11;99214.94;6177375;23;20167;-79
2023/03/25 10:03:50;;;;;;;0.73;0.65;;;;;;;13.81;56.28;99217.03;6177228;23;20174;-80
2023/03/25 10:06:19;;;;;;;2.70;0.80;;;;;;;14.11;55.64;99211.81;6179053;23;20917;-79
2023/03/25 10:08:54;;;;;;;0.82;0.60;;;;;;;14.17;54.94;99215.75;6180778;23;20448;-80
2023/03/25 10:11:35;;;;;;;0.60;0.50;;;;;;;14.06;54.88;99231.66;6180591;23;20162;-79
2023/03/25 10:14:25;;;;;;;0.80;0.70;;;;;;;13.83;54.74;99220.41;6177052;23;20170;-79
2023/03/25 10:17:14;;;;;;;0.70;0.70;;;;;;;13.76;54.67;99227.97;6178259;23;20177;-79
2023/03/25 10:19:54;;;;;;;0.80;0.60;;;;;;;13.68;54.64;99235.69;6176308;23;20411;-80
2023/03/25 10:22:22;;;;;;;1.23;0.70;;;;;;;13.45;54.70;99233.16;6179006;23;20185;-79
2023/03/25 10:24:56;;;;;;;1.40;0.75;;;;;;;13.33;55.14;99223.56;6178490;23;20647;-80
2023/03/25 10:27:31;;;;;;;1.00;0.60;;;;;;;13.28;55.35;99233.66;6155940;23;20211;-80
2023/03/25 10:30:09;;;;;;;1.15;0.68;;;;;;;13.23;55.66;99226.09;6162171;23;20647;-80
2023/03/25 10:32:40;;;;;;;0.80;0.68;;;;;;;13.22;55.40;99227.06;6179555;23;20152;-80
2023/03/25 10:35:14;;;;;;;1.45;0.82;;;;;;;13.25;55.72;99234.72;6174675;23;20157;-79
2023/03/25 10:37:43;;;;;;;1.55;0.70;;;;;;;13.37;55.62;99240.00;6175059;23;20265;-80
2023/03/25 10:40:24;;;;;;;1.00;0.80;;;;;;;13.44;54.98;99226.16;6176489;23;20261;-79
2023/03/25 10:43:12;;;;;;;0.70;0.68;;;;;;;13.64;54.53;99224.56;6176596;23;20363;-79
2023/03/25 10:45:41;;;;;;;1.83;0.70;;;;;;;13.76;54.08;99225.34;6136998;23;20203;-79
2023/03/25 10:48:30;;;;;;;1.20;0.85;;;;;;;13.82;53.92;99218.72;6147605;23;20297;-80
2023/03/25 10:51:11;;;;;;;1.70;0.95;;;;;;;13.82;54.66;99223.97;6178367;23;20695;-80
2023/03/25 10:53:40;;;;;;;3.15;0.95;;;;;;;13.81;55.37;99214.41;6177993;23;20969;-80
2023/03/25 10:56:16;;;;;;;2.05;1.00;;;;;;;13.87;56.00;99222.63;6153148;23;20506;-81
2023/03/25 10:58:45;;;;;;;0.70;0.70;;;;;;;14.04;55.99;99212.47;6182620;23;20188;-81
2023/03/25 11:01:13;;;;;;;0.80;0.70;;;;;;;14.12;55.33;99212.66;6180134;23;20237;-82
2023/03/25 11:03:41;;;;;;;4.60;0.98;;;;;;;14.13;55.39;99203.78;6181355;23;20201;-82
2023/03/25 11:06:12;;;;;;;0.98;0.85;;;;;;;14.04;55.76;99205.41;6181493;23;20246;-84
2023/03/25 11:08:56;;;;;;;2.38;1.15;;;;;;;14.14;55.92;99208.06;6182093;23;20261;-81
2023/03/25 11:11:31;;;;;;;1.85;1.15;;;;;;;14.40;55.08;99195.28;6184610;23;20212;-79
2023/03/25 11:13:57;;;;;;;1.08;0.80;;;;;;;14.55;53.87;99203.72;6182503;23;20166;-79
2023/03/25 11:16:22;;;;;;;1.00;0.63;;;;;;;14.56;53.49;99206.25;6182380;23;20599;-80
2023/03/25 11:18:51;;;;;;;1.60;1.03;;;;;;;14.56;53.42;99190.38;6155344;23;20675;-79
2023/03/25 11:21:17;;;;;;;2.67;1.20;;;;;;;14.63;53.40;99198.59;6175393;23;20627;-79
2023/03/25 11:23:45;;;;;;;1.30;1.13;;;;;;;14.82;53.11;99200.47;6175506;23;20162;-80
2023/03/25 11:26:35;;;;;;;1.10;1.00;;;;;;;14.88;52.08;99201.75;6178369;23;20190;-80
2023/03/25 11:29:06;;;;;;;1.10;0.90;;;;;;;14.73;51.82;99196.00;6197042;23;20171;-79
2023/03/25 11:31:36;;;;;;;1.00;0.80;;;;;;;14.56;51.24;99202.78;6191964;23;20238;-79
2023/03/25 11:34:05;;;;;;;2.95;1.30;;;;;;;14.42;51.51;99198.66;6189990;23;20162;-79
2023/03/25 11:36:39;;;;;;;2.97;1.42;;;;;;;14.31;51.93;99211.91;6189203;23;20155;-79
2023/03/25 11:39:17;;;;;;;1.75;1.20;;;;;;;14.24;52.34;99202.88;6187493;23;20241;-80
2023/03/25 11:41:44;;;;;;;4.18;1.30;;;;;;;14.28;51.81;99194.53;6188975;23;20185;-79
2023/03/25 11:44:22;;;;;;;4.53;1.20;;;;;;;14.45;50.93;99202.84;6189742;23;20187;-80
2023/03/25 11:46:55;;;;;;;2.15;1.30;;;;;;;14.56;49.76;99193.03;6189388;23;20190;-79
2023/03/25 11:49:22;;;;;;;2.38;1.20;;;;;;;14.63;49.18;99195.97;6188657;23;20573;-79
2023/03/25 11:52:00;;;;;;;3.85;0.88;;;;;;;14.67;48.45;99201.84;5090552;27;20500;-79